Time,TemperatureF,DewpointF,PressureIn,WindDirection,WindDirectionDegrees,WindSpeedMPH,WindSpeedGustMPH,Humidity,HourlyPrecipIn,Conditions,Clouds,dailyrainin,SoftwareType,DateUTC
2013-09-04 00:05:00,82.1,78.2,29.97,WSW,238,2.0,11.0,88,0.00,,,0.00,Wunderground v.1.15,2013-09-04 04:05:00,
2013-09-04 00:10:00,81.9,78.0,29.97,WSW,238,0.0,11.0,88,0.00,,,0.00,Wunderground v.1.15,2013-09-04 04:10:00,
2013-09-04 00:15:00,81.9,78.0,29.97,WSW,238,0.0,11.0,88,0.00,,,0.00,Wunderground v.1.15,2013-09-04 04:15:00,
2013-09-04 00:20:00,81.9,78.0,29.97,WSW,238,0.0,11.0,88,0.00,,,0.00,Wunderground v.1.15,2013-09-04 04:20:00,
2013-09-04 00:25:00,81.8,77.5,29.96,SSW,196,0.0,11.0,87,0.00,,,0.00,Wunderground v.1.15,2013-09-04 04:25:00,
2013-09-04 00:30:00,81.8,77.5,29.96,SSW,206,0.0,11.0,87,0.00,,,0.00,Wunderground v.1.15,2013-09-04 04:30:00,
2013-09-04 00:35:00,81.8,77.2,29.96,SSW,206,0.0,11.0,86,0.00,,,0.00,Wunderground v.1.15,2013-09-04 04:35:00,
2013-09-04 00:40:00,81.7,77.1,29.96,SSW,206,0.0,11.0,86,0.00,,,0.00,Wunderground v.1.15,2013-09-04 04:40:00,
2013-09-04 00:45:00,81.6,77.0,29.96,SSW,206,0.0,11.0,86,0.00,,,0.00,Wunderground v.1.15,2013-09-04 04:45:00,
2013-09-04 00:50:00,81.6,77.0,29.96,SSW,206,0.0,11.0,86,0.00,,,0.00,Wunderground v.1.15,2013-09-04 04:50:00,
2013-09-04 00:55:00,81.6,77.0,29.97,SSW,206,0.0,11.0,86,0.00,,,0.00,Wunderground v.1.15,2013-09-04 04:55:00,
2013-09-04 01:05:00,81.8,76.8,29.97,SSW,206,0.0,11.0,85,0.00,,,0.00,Wunderground v.1.15,2013-09-04 05:05:00,
2013-09-04 01:10:00,82.3,78.0,29.97,NE,36,0.0,11.0,87,0.00,,,0.00,Wunderground v.1.15,2013-09-04 05:10:00,
2013-09-04 01:15:00,82.4,78.8,29.96,NE,40,4.0,11.0,89,0.00,,,0.00,Wunderground v.1.15,2013-09-04 05:15:00,
2013-09-04 01:20:00,82.1,78.9,29.96,NNE,26,8.0,11.0,90,0.00,,,0.00,Wunderground v.1.15,2013-09-04 05:20:00,
2013-09-04 01:30:00,81.8,78.9,29.97,NNE,31,8.0,11.0,91,0.00,,,0.00,Wunderground v.1.15,2013-09-04 05:30:00,
2013-09-04 01:40:00,81.6,78.7,29.96,NE,45,9.0,9.0,91,0.00,,,0.00,Wunderground v.1.15,2013-09-04 05:40:00,
2013-09-04 01:45:00,81.5,78.6,29.96,NE,36,9.0,11.0,91,0.00,,,0.00,Wunderground v.1.15,2013-09-04 05:45:00,
2013-09-04 01:50:00,81.7,78.8,29.96,NNE,32,8.0,11.0,91,0.00,,,0.00,Wunderground v.1.15,2013-09-04 05:50:00,
2013-09-04 01:55:00,81.6,78.7,29.96,NE,39,7.0,11.0,91,0.00,,,0.00,Wunderground v.1.15,2013-09-04 05:55:00,
2013-09-04 02:05:00,81.6,78.7,29.96,NE,55,4.0,11.0,91,0.00,,,0.00,Wunderground v.1.15,2013-09-04 06:05:00,
2013-09-04 02:10:00,81.7,78.8,29.96,NE,53,1.0,1.0,91,0.00,,,0.00,Wunderground v.1.15,2013-09-04 06:10:00,
2013-09-04 02:20:00,81.8,78.9,29.96,NE,34,0.0,11.0,91,0.00,,,0.00,Wunderground v.1.15,2013-09-04 06:20:00,
2013-09-04 02:25:00,81.7,78.8,29.96,NE,34,0.0,11.0,91,0.00,,,0.00,Wunderground v.1.15,2013-09-04 06:25:00,
2013-09-04 02:35:00,81.5,78.6,29.96,NE,41,4.0,11.0,91,0.00,,,0.00,Wunderground v.1.15,2013-09-04 06:35:00,
2013-09-04 02:40:00,81.5,78.6,29.96,NE,41,4.0,4.0,91,0.00,,,0.00,Wunderground v.1.15,2013-09-04 06:40:00,
2013-09-04 02:50:00,81.6,78.7,29.95,NNE,29,1.0,1.0,91,0.00,,,0.00,Wunderground v.1.15,2013-09-04 06:50:00,
2013-09-04 02:55:00,81.5,78.9,29.95,NE,41,1.0,11.0,92,0.00,,,0.00,Wunderground v.1.15,2013-09-04 06:55:00,
2013-09-04 03:00:00,81.5,78.6,29.95,NE,42,0.0,11.0,91,0.00,,,0.00,Wunderground v.1.15,2013-09-04 07:00:00,
2013-09-04 03:10:00,81.4,78.5,29.95,NE,35,6.0,6.0,91,0.00,,,0.00,Wunderground v.1.15,2013-09-04 07:10:00,
2013-09-04 03:15:00,81.4,78.5,29.95,NNE,32,6.0,11.0,91,0.00,,,0.00,Wunderground v.1.15,2013-09-04 07:15:00,
2013-09-04 03:25:00,81.3,78.4,29.95,NNE,29,3.0,11.0,91,0.00,,,0.00,Wunderground v.1.15,2013-09-04 07:25:00,
2013-09-04 03:30:00,81.3,78.4,29.95,NE,40,0.0,11.0,91,0.00,,,0.00,Wunderground v.1.15,2013-09-04 07:30:00,
2013-09-04 03:40:00,81.4,78.5,29.95,NE,46,1.0,11.0,91,0.00,,,0.00,Wunderground v.1.15,2013-09-04 07:40:00,
2013-09-04 03:50:00,81.5,78.6,29.95,NE,42,7.0,11.0,91,0.00,,,0.00,Wunderground v.1.15,2013-09-04 07:50:00,
2013-09-04 03:55:00,81.5,78.6,29.95,NE,40,7.0,11.0,91,0.00,,,0.00,Wunderground v.1.15,2013-09-04 07:55:00,
2013-09-04 04:05:00,81.4,78.9,29.95,NE,34,8.0,11.0,92,0.00,,,0.00,Wunderground v.1.15,2013-09-04 08:05:00,
2013-09-04 04:15:00,81.1,78.6,29.95,NE,46,7.0,11.0,92,0.00,,,0.00,Wunderground v.1.15,2013-09-04 08:15:00,
2013-09-04 04:20:00,81.3,78.8,29.95,NE,36,6.0,11.0,92,0.00,,,0.00,Wunderground v.1.15,2013-09-04 08:20:00,
2013-09-04 04:25:00,81.3,78.8,29.95,NE,36,6.0,11.0,92,0.00,,,0.00,Wunderground v.1.15,2013-09-04 08:25:00,
2013-09-04 04:35:00,81.2,78.7,29.95,NE,44,8.0,11.0,92,0.00,,,0.00,Wunderground v.1.15,2013-09-04 08:35:00,
2013-09-04 04:40:00,81.4,78.9,29.96,NNE,26,8.0,11.0,92,0.00,,,0.00,Wunderground v.1.15,2013-09-04 08:40:00,
2013-09-04 04:50:00,80.9,78.4,29.96,NE,45,10.0,11.0,92,0.00,,,0.00,Wunderground v.1.15,2013-09-04 08:50:00,
2013-09-04 04:55:00,81.0,78.5,29.96,NE,41,9.0,11.0,92,0.00,,,0.00,Wunderground v.1.15,2013-09-04 08:55:00,
2013-09-04 05:05:00,80.9,78.7,29.96,NE,44,9.0,11.0,93,0.00,,,0.00,Wunderground v.1.15,2013-09-04 09:05:00,
2013-09-04 05:10:00,81.0,78.8,29.96,NE,53,9.0,9.0,93,0.00,,,0.00,Wunderground v.1.15,2013-09-04 09:10:00,
2013-09-04 05:20:00,81.0,78.8,29.96,ENE,67,8.0,8.0,93,0.00,,,0.00,Wunderground v.1.15,2013-09-04 09:20:00,
2013-09-04 05:25:00,80.9,78.7,29.96,ENE,65,8.0,11.0,93,0.00,,,0.00,Wunderground v.1.15,2013-09-04 09:25:00,
2013-09-04 05:35:00,80.8,78.6,29.96,ENE,64,8.0,11.0,93,0.00,,,0.00,Wunderground v.1.15,2013-09-04 09:35:00,
2013-09-04 05:40:00,80.7,78.5,29.96,ENE,71,7.0,11.0,93,0.00,,,0.00,Wunderground v.1.15,2013-09-04 09:40:00,
2013-09-04 05:50:00,80.7,78.5,29.96,ENE,67,8.0,8.0,93,0.00,,,0.00,Wunderground v.1.15,2013-09-04 09:50:00,
2013-09-04 05:55:00,80.6,78.1,29.96,ENE,67,8.0,11.0,92,0.00,,,0.00,Wunderground v.1.15,2013-09-04 09:55:00,
2013-09-04 06:05:00,80.7,78.5,29.96,ENE,78,7.0,11.0,93,0.00,,,0.00,Wunderground v.1.15,2013-09-04 10:05:00,
2013-09-04 06:10:00,80.6,78.4,29.96,East,89,6.0,6.0,93,0.00,,,0.00,Wunderground v.1.15,2013-09-04 10:10:00,
2013-09-04 06:15:00,80.4,78.2,29.97,East,92,5.0,11.0,93,0.00,,,0.00,Wunderground v.1.15,2013-09-04 10:15:00,
2013-09-04 06:25:00,80.2,78.0,29.97,East,88,5.0,11.0,93,0.00,,,0.00,Wunderground v.1.15,2013-09-04 10:25:00,
2013-09-04 06:30:00,80.3,78.1,29.97,ENE,74,2.0,2.0,93,0.00,,,0.00,Wunderground v.1.15,2013-09-04 10:30:00,
2013-09-04 06:40:00,80.1,78.2,29.97,ENE,74,0.0,11.0,94,0.00,,,0.00,Wunderground v.1.15,2013-09-04 10:40:00,
2013-09-04 06:45:00,80.3,78.4,29.97,ENE,77,0.0,11.0,94,0.00,,,0.00,Wunderground v.1.15,2013-09-04 10:45:00,
2013-09-04 06:50:00,80.2,78.3,29.98,ENE,78,0.0,11.0,94,0.00,,,0.00,Wunderground v.1.15,2013-09-04 10:50:00,
2013-09-04 06:55:00,80.1,78.2,29.98,East,79,0.0,11.0,94,0.00,,,0.00,Wunderground v.1.15,2013-09-04 10:55:00,
2013-09-04 07:05:00,80.0,78.4,29.98,East,79,0.0,11.0,95,0.00,,,0.00,Wunderground v.1.15,2013-09-04 11:05:00,
2013-09-04 07:10:00,80.2,78.6,29.98,East,79,0.0,11.0,95,0.00,,,0.00,Wunderground v.1.15,2013-09-04 11:10:00,
2013-09-04 07:20:00,80.2,78.6,29.99,ENE,76,1.0,1.0,95,0.00,,,0.00,Wunderground v.1.15,2013-09-04 11:20:00,
2013-09-04 07:25:00,80.2,79.0,29.99,ENE,76,0.0,11.0,96,0.00,,,0.00,Wunderground v.1.15,2013-09-04 11:25:00,
2013-09-04 07:35:00,80.3,79.1,29.99,ENE,76,0.0,11.0,96,0.00,,,0.00,Wunderground v.1.15,2013-09-04 11:35:00,
2013-09-04 07:40:00,80.3,79.1,29.99,East,80,0.0,11.0,96,0.00,,,0.00,Wunderground v.1.15,2013-09-04 11:40:00,
2013-09-04 07:50:00,80.6,79.4,30.00,East,81,0.0,11.0,96,0.00,,,0.00,Wunderground v.1.15,2013-09-04 11:50:00,
2013-09-04 07:55:00,80.7,79.5,30.00,ENE,71,1.0,11.0,96,0.00,,,0.00,Wunderground v.1.15,2013-09-04 11:55:00,
2013-09-04 08:05:00,81.1,79.9,30.00,East,80,0.0,5.0,96,0.00,,,0.00,Wunderground v.1.15,2013-09-04 12:05:00,
2013-09-04 08:10:00,81.2,79.6,30.00,East,80,1.0,1.0,95,0.00,,,0.00,Wunderground v.1.15,2013-09-04 12:10:00,
2013-09-04 08:20:00,81.5,79.9,30.00,East,98,0.0,11.0,95,0.00,,,0.00,Wunderground v.1.15,2013-09-04 12:20:00,
2013-09-04 08:25:00,81.6,80.0,30.01,ESE,109,0.0,11.0,95,0.00,,,0.00,Wunderground v.1.15,2013-09-04 12:25:00,
2013-09-04 08:30:00,81.7,79.8,30.01,East,96,1.0,11.0,94,0.00,,,0.00,Wunderground v.1.15,2013-09-04 12:30:00,
2013-09-04 08:40:00,81.9,80.0,30.01,East,97,5.0,11.0,94,0.00,,,0.00,Wunderground v.1.15,2013-09-04 12:40:00,
2013-09-04 08:45:00,82.0,79.8,30.01,ESE,105,5.0,11.0,93,0.00,,,0.00,Wunderground v.1.15,2013-09-04 12:45:00,
2013-09-04 08:50:00,82.2,80.0,30.02,East,80,4.0,11.0,93,0.00,,,0.00,Wunderground v.1.15,2013-09-04 12:50:00,
2013-09-04 08:55:00,82.3,79.7,30.02,East,88,4.0,11.0,92,0.00,,,0.00,Wunderground v.1.15,2013-09-04 12:55:00,
2013-09-04 09:05:00,82.5,79.9,30.02,East,89,0.0,11.0,92,0.00,,,0.00,Wunderground v.1.15,2013-09-04 13:05:00,
2013-09-04 09:10:00,82.7,79.8,30.02,East,90,0.0,11.0,91,0.00,,,0.00,Wunderground v.1.15,2013-09-04 13:10:00,
2013-09-04 09:20:00,82.9,79.7,30.03,ENE,78,0.0,11.0,90,0.00,,,0.00,Wunderground v.1.15,2013-09-04 13:20:00,
2013-09-04 09:25:00,83.0,79.8,30.03,East,79,0.0,11.0,90,0.00,,,0.00,Wunderground v.1.15,2013-09-04 13:25:00,
2013-09-04 09:35:00,83.3,80.1,30.03,ENE,69,0.0,11.0,90,0.00,,,0.00,Wunderground v.1.15,2013-09-04 13:35:00,
2013-09-04 09:40:00,82.9,80.0,30.04,ENE,66,1.0,1.0,91,0.00,,,0.00,Wunderground v.1.15,2013-09-04 13:40:00,
2013-09-04 09:50:00,82.5,79.9,30.04,ENE,63,1.0,1.0,92,0.00,,,0.00,Wunderground v.1.15,2013-09-04 13:50:00,
2013-09-04 09:55:00,82.4,79.5,30.04,ENE,61,0.0,1.0,91,0.00,,,0.00,Wunderground v.1.15,2013-09-04 13:55:00,
2013-09-04 10:00:00,82.4,79.5,30.05,ENE,59,0.0,0.0,91,0.00,,,0.00,Wunderground v.1.15,2013-09-04 14:00:00,
2013-09-04 10:05:00,82.5,79.6,30.05,ENE,57,0.0,0.0,91,0.00,,,0.00,Wunderground v.1.15,2013-09-04 14:05:00,
2013-09-04 10:15:00,82.6,79.7,30.05,NE,43,0.0,0.0,91,0.00,,,0.00,Wunderground v.1.15,2013-09-04 14:15:00,
2013-09-04 10:20:00,82.6,79.7,30.05,NE,53,0.0,0.0,91,0.00,,,0.00,Wunderground v.1.15,2013-09-04 14:20:00,
2013-09-04 10:25:00,82.7,79.8,30.05,NE,54,0.0,0.0,91,0.00,,,0.00,Wunderground v.1.15,2013-09-04 14:25:00,
2013-09-04 10:35:00,82.7,79.8,30.05,East,80,1.0,3.0,91,0.00,,,0.00,Wunderground v.1.15,2013-09-04 14:35:00,
2013-09-04 10:40:00,82.6,79.7,30.06,East,86,0.0,3.0,91,0.00,,,0.00,Wunderground v.1.15,2013-09-04 14:40:00,
2013-09-04 10:50:00,82.8,79.9,30.06,East,96,0.0,3.0,91,0.00,,,0.00,Wunderground v.1.15,2013-09-04 14:50:00,
2013-09-04 10:55:00,82.8,79.6,30.06,SE,140,0.0,3.0,90,0.00,,,0.00,Wunderground v.1.15,2013-09-04 14:55:00,
2013-09-04 11:05:00,84.2,80.6,30.06,SSE,159,1.0,5.0,89,0.00,,,0.00,Wunderground v.1.15,2013-09-04 15:05:00,
2013-09-04 11:10:00,84.5,79.8,30.06,SE,138,3.0,6.0,86,0.00,,,0.00,Wunderground v.1.15,2013-09-04 15:10:00,
2013-09-04 11:20:00,85.6,80.6,30.06,South,181,5.0,5.0,85,0.00,,,0.00,Wunderground v.1.15,2013-09-04 15:20:00,
2013-09-04 11:25:00,85.6,80.6,30.06,South,172,5.0,5.0,85,0.00,,,0.00,Wunderground v.1.15,2013-09-04 15:25:00,
2013-09-04 11:30:00,85.9,80.5,30.06,South,186,4.0,7.0,84,0.00,,,0.00,Wunderground v.1.15,2013-09-04 15:30:00,
2013-09-04 11:40:00,86.6,80.4,30.06,South,173,5.0,5.0,82,0.00,,,0.00,Wunderground v.1.15,2013-09-04 15:40:00,
2013-09-04 11:45:00,86.9,80.0,30.06,SSE,158,5.0,5.0,80,0.00,,,0.00,Wunderground v.1.15,2013-09-04 15:45:00,
2013-09-04 11:55:00,86.1,80.0,30.07,SSW,207,5.0,6.0,82,0.00,,,0.00,Wunderground v.1.15,2013-09-04 15:55:00,
2013-09-04 12:00:00,86.6,80.4,30.07,SSE,159,5.0,7.0,82,0.00,,,0.00,Wunderground v.1.15,2013-09-04 16:00:00,
2013-09-04 12:05:00,86.1,79.6,30.06,SSE,168,5.0,7.0,81,0.00,,,0.00,Wunderground v.1.15,2013-09-04 16:05:00,
2013-09-04 12:10:00,86.3,80.2,30.06,SSE,166,5.0,8.0,82,0.00,,,0.00,Wunderground v.1.15,2013-09-04 16:10:00,
2013-09-04 12:20:00,86.4,80.2,30.06,SSE,158,6.0,6.0,82,0.00,,,0.00,Wunderground v.1.15,2013-09-04 16:20:00,
2013-09-04 12:25:00,86.8,79.9,30.06,South,179,6.0,9.0,80,0.00,,,0.00,Wunderground v.1.15,2013-09-04 16:25:00,
2013-09-04 12:35:00,87.4,80.1,30.06,South,169,7.0,9.0,79,0.00,,,0.00,Wunderground v.1.15,2013-09-04 16:35:00,
2013-09-04 12:40:00,87.4,80.1,30.06,South,184,6.0,6.0,79,0.00,,,0.00,Wunderground v.1.15,2013-09-04 16:40:00,
2013-09-04 12:50:00,87.3,79.6,30.06,South,171,6.0,6.0,78,0.00,,,0.00,Wunderground v.1.15,2013-09-04 16:50:00,
2013-09-04 12:55:00,87.3,79.2,30.06,SSE,161,6.0,6.0,77,0.00,,,0.00,Wunderground v.1.15,2013-09-04 16:55:00,
2013-09-04 13:05:00,87.0,79.3,30.06,SSW,204,6.0,6.0,78,0.00,,,0.00,Wunderground v.1.15,2013-09-04 17:05:00,
2013-09-04 13:10:00,87.2,79.9,30.06,SSW,192,6.0,6.0,79,0.00,,,0.00,Wunderground v.1.15,2013-09-04 17:10:00,
2013-09-04 13:20:00,87.4,79.7,30.05,SSW,205,5.0,5.0,78,0.00,,,0.00,Wunderground v.1.15,2013-09-04 17:20:00,
2013-09-04 13:25:00,87.2,79.5,30.06,SSW,205,5.0,5.0,78,0.00,,,0.00,Wunderground v.1.15,2013-09-04 17:25:00,
2013-09-04 13:35:00,87.0,79.3,30.05,SSW,194,6.0,6.0,78,0.00,,,0.00,Wunderground v.1.15,2013-09-04 17:35:00,
2013-09-04 13:40:00,87.3,79.2,30.05,South,181,4.0,4.0,77,0.00,,,0.00,Wunderground v.1.15,2013-09-04 17:40:00,
2013-09-04 13:50:00,87.3,78.8,30.05,South,190,4.0,6.0,76,0.00,,,0.00,Wunderground v.1.15,2013-09-04 17:50:00,
2013-09-04 13:55:00,87.5,79.0,30.05,South,182,6.0,6.0,76,0.00,,,0.00,Wunderground v.1.15,2013-09-04 17:55:00,
2013-09-04 14:05:00,87.6,78.7,30.04,SSW,196,6.0,7.0,75,0.00,,,0.00,Wunderground v.1.15,2013-09-04 18:05:00,
2013-09-04 14:10:00,87.5,78.6,30.04,SW,229,6.0,6.0,75,0.00,,,0.00,Wunderground v.1.15,2013-09-04 18:10:00,
2013-09-04 14:20:00,87.4,79.3,30.04,SSW,205,6.0,6.0,77,0.00,,,0.00,Wunderground v.1.15,2013-09-04 18:20:00,
2013-09-04 14:25:00,87.4,78.9,30.04,South,173,6.0,7.0,76,0.00,,,0.00,Wunderground v.1.15,2013-09-04 18:25:00,
2013-09-04 14:30:00,87.5,78.6,30.04,South,189,6.0,6.0,75,0.00,,,0.00,Wunderground v.1.15,2013-09-04 18:30:00,
2013-09-04 14:40:00,88.1,78.3,30.04,South,189,5.0,6.0,73,0.00,,,0.00,Wunderground v.1.15,2013-09-04 18:40:00,
2013-09-04 14:45:00,88.4,78.2,30.04,South,178,6.0,7.0,72,0.00,,,0.00,Wunderground v.1.15,2013-09-04 18:45:00,
2013-09-04 14:55:00,88.3,78.5,30.03,South,191,5.0,7.0,73,0.00,,,0.00,Wunderground v.1.15,2013-09-04 18:55:00,
2013-09-04 15:05:00,87.7,78.0,30.03,SSW,198,6.0,6.0,73,0.00,,,0.00,Wunderground v.1.15,2013-09-04 19:05:00,
2013-09-04 15:10:00,88.0,78.7,30.03,SSW,201,6.0,7.0,74,0.00,,,0.00,Wunderground v.1.15,2013-09-04 19:10:00,
2013-09-04 15:15:00,88.0,78.7,30.03,South,169,7.0,9.0,74,0.00,,,0.00,Wunderground v.1.15,2013-09-04 19:15:00,
2013-09-04 15:20:00,88.1,78.8,30.02,South,180,7.0,7.0,74,0.00,,,0.00,Wunderground v.1.15,2013-09-04 19:20:00,
2013-09-04 15:30:00,88.5,78.7,30.02,South,189,8.0,13.0,73,0.00,,,0.00,Wunderground v.1.15,2013-09-04 19:30:00,
2013-09-04 15:35:00,88.4,78.2,30.02,South,175,8.0,13.0,72,0.00,,,0.00,Wunderground v.1.15,2013-09-04 19:35:00,
2013-09-04 15:40:00,88.7,78.5,30.02,SSE,167,8.0,8.0,72,0.00,,,0.00,Wunderground v.1.15,2013-09-04 19:40:00,
2013-09-04 15:50:00,88.4,77.8,30.02,South,186,9.0,10.0,71,0.00,,,0.00,Wunderground v.1.15,2013-09-04 19:50:00,
2013-09-04 15:55:00,88.7,78.1,30.01,South,180,10.0,10.0,71,0.00,,,0.00,Wunderground v.1.15,2013-09-04 19:55:00,
2013-09-04 16:05:00,88.6,78.8,30.01,SSW,201,9.0,12.0,73,0.00,,,0.00,Wunderground v.1.15,2013-09-04 20:05:00,
2013-09-04 16:10:00,88.3,77.7,30.01,SSE,156,9.0,9.0,71,0.00,,,0.00,Wunderground v.1.15,2013-09-04 20:10:00,
2013-09-04 16:20:00,88.1,78.8,30.01,South,187,10.0,10.0,74,0.00,,,0.00,Wunderground v.1.15,2013-09-04 20:20:00,
2013-09-04 16:25:00,88.2,79.3,30.00,South,186,9.0,10.0,75,0.00,,,0.00,Wunderground v.1.15,2013-09-04 20:25:00,
2013-09-04 16:30:00,88.0,79.1,30.00,SSE,161,9.0,11.0,75,0.00,,,0.00,Wunderground v.1.15,2013-09-04 20:30:00,
2013-09-04 16:40:00,87.6,78.7,30.00,South,184,9.0,9.0,75,0.00,,,0.00,Wunderground v.1.15,2013-09-04 20:40:00,
2013-09-04 16:45:00,87.9,79.0,30.01,SSE,164,9.0,10.0,75,0.00,,,0.00,Wunderground v.1.15,2013-09-04 20:45:00,
2013-09-04 16:50:00,87.8,78.1,30.00,SSE,166,9.0,9.0,73,0.00,,,0.00,Wunderground v.1.15,2013-09-04 20:50:00,
2013-09-04 17:00:00,87.8,78.9,29.99,South,189,10.0,10.0,75,0.00,,,0.00,Wunderground v.1.15,2013-09-04 21:00:00,
2013-09-04 17:05:00,87.9,78.6,29.99,SSW,205,11.0,11.0,74,0.00,,,0.00,Wunderground v.1.15,2013-09-04 21:05:00,
2013-09-04 17:10:00,87.9,78.2,29.99,South,173,11.0,11.0,73,0.00,,,0.00,Wunderground v.1.15,2013-09-04 21:10:00,
2013-09-04 17:20:00,87.9,78.2,29.99,SW,228,11.0,11.0,73,0.00,,,0.00,Wunderground v.1.15,2013-09-04 21:20:00,
2013-09-04 17:30:00,87.5,78.2,30.00,South,180,11.0,11.0,74,0.00,,,0.00,Wunderground v.1.15,2013-09-04 21:30:00,
2013-09-04 17:35:00,87.5,78.2,30.00,South,190,10.0,11.0,74,0.00,,,0.00,Wunderground v.1.15,2013-09-04 21:35:00,
2013-09-04 17:40:00,87.4,78.9,30.00,South,171,9.0,9.0,76,0.00,,,0.00,Wunderground v.1.15,2013-09-04 21:40:00,
2013-09-04 17:50:00,87.2,78.3,30.00,South,190,10.0,14.0,75,0.00,,,0.00,Wunderground v.1.15,2013-09-04 21:50:00,
2013-09-04 18:00:00,87.1,79.0,30.01,SSE,157,9.0,9.0,77,0.00,,,0.00,Wunderground v.1.15,2013-09-04 22:00:00,
2013-09-04 18:05:00,87.0,78.5,30.01,South,188,8.0,11.0,76,0.00,,,0.00,Wunderground v.1.15,2013-09-04 22:05:00,
2013-09-04 18:15:00,86.7,78.2,30.01,SSW,202,8.0,8.0,76,0.00,,,0.00,Wunderground v.1.15,2013-09-04 22:15:00,
2013-09-04 18:20:00,86.4,77.9,30.01,South,187,7.0,9.0,76,0.00,,,0.00,Wunderground v.1.15,2013-09-04 22:20:00,
2013-09-04 18:25:00,86.2,78.1,30.02,South,180,7.0,9.0,77,0.00,,,0.00,Wunderground v.1.15,2013-09-04 22:25:00,
2013-09-04 18:35:00,85.7,77.7,30.02,SSW,200,6.0,7.0,77,0.00,,,0.00,Wunderground v.1.15,2013-09-04 22:35:00,
2013-09-04 18:40:00,85.5,77.5,30.02,SSW,192,5.0,5.0,77,0.00,,,0.00,Wunderground v.1.15,2013-09-04 22:40:00,
2013-09-04 18:50:00,85.2,77.6,30.02,SSW,205,5.0,6.0,78,0.00,,,0.00,Wunderground v.1.15,2013-09-04 22:50:00,
2013-09-04 18:55:00,85.0,77.0,30.02,South,184,6.0,6.0,77,0.00,,,0.00,Wunderground v.1.15,2013-09-04 22:55:00,
2013-09-04 19:05:00,84.8,77.2,30.01,SSW,210,7.0,7.0,78,0.00,,,0.00,Wunderground v.1.15,2013-09-04 23:05:00,
2013-09-04 19:10:00,84.8,77.2,30.01,SW,215,5.0,5.0,78,0.00,,,0.00,Wunderground v.1.15,2013-09-04 23:10:00,
2013-09-04 19:20:00,84.6,77.4,30.01,SSE,164,5.0,8.0,79,0.00,,,0.00,Wunderground v.1.15,2013-09-04 23:20:00,
2013-09-04 19:25:00,84.4,77.6,30.00,SSW,213,7.0,8.0,80,0.00,,,0.00,Wunderground v.1.15,2013-09-04 23:25:00,
2013-09-04 19:35:00,84.2,77.4,30.01,SSW,196,7.0,10.0,80,0.00,,,0.00,Wunderground v.1.15,2013-09-04 23:35:00,
2013-09-04 19:40:00,84.2,77.4,30.01,South,181,8.0,8.0,80,0.00,,,0.00,Wunderground v.1.15,2013-09-04 23:40:00,
2013-09-04 19:50:00,84.1,77.6,30.01,South,182,8.0,8.0,81,0.00,,,0.00,Wunderground v.1.15,2013-09-04 23:50:00,
2013-09-04 19:55:00,84.1,77.6,30.01,South,186,8.0,8.0,81,0.00,,,0.00,Wunderground v.1.15,2013-09-04 23:55:00,
2013-09-04 20:05:00,84.0,77.5,30.02,South,179,7.0,9.0,81,0.00,,,0.00,Wunderground v.1.15,2013-09-05 00:05:00,
2013-09-04 20:10:00,83.9,77.8,30.02,South,182,6.0,6.0,82,0.00,,,0.00,Wunderground v.1.15,2013-09-05 00:10:00,
2013-09-04 20:15:00,83.8,77.7,30.02,SSW,192,4.0,6.0,82,0.00,,,0.00,Wunderground v.1.15,2013-09-05 00:15:00,
2013-09-04 20:25:00,83.8,77.7,30.02,SSW,194,4.0,6.0,82,0.00,,,0.00,Wunderground v.1.15,2013-09-05 00:25:00,
2013-09-04 20:30:00,83.8,78.1,30.02,South,182,6.0,9.0,83,0.00,,,0.00,Wunderground v.1.15,2013-09-05 00:30:00,
2013-09-04 20:35:00,83.8,77.7,30.01,South,186,8.0,11.0,82,0.00,,,0.00,Wunderground v.1.15,2013-09-05 00:35:00,
2013-09-04 20:45:00,84.0,77.9,30.02,South,186,9.0,10.0,82,0.00,,,0.00,Wunderground v.1.15,2013-09-05 00:45:00,
2013-09-04 20:50:00,83.9,77.8,30.02,SSW,192,8.0,9.0,82,0.00,,,0.00,Wunderground v.1.15,2013-09-05 00:50:00,
2013-09-04 20:55:00,83.8,77.7,30.02,SSW,199,8.0,9.0,82,0.00,,,0.00,Wunderground v.1.15,2013-09-05 00:55:00,
2013-09-04 21:00:00,83.7,77.2,30.02,South,188,8.0,8.0,81,0.00,,,0.00,Wunderground v.1.15,2013-09-05 01:00:00,
2013-09-04 21:05:00,83.7,77.2,30.02,SSW,196,6.0,8.0,81,0.00,,,0.00,Wunderground v.1.15,2013-09-05 01:05:00,
2013-09-04 21:15:00,83.8,76.2,30.03,SSW,205,6.0,7.0,78,0.00,,,0.00,Wunderground v.1.15,2013-09-05 01:15:00,
2013-09-04 21:20:00,83.8,76.2,30.04,South,178,6.0,6.0,78,0.00,,,0.00,Wunderground v.1.15,2013-09-05 01:20:00,
2013-09-04 21:30:00,83.7,76.5,30.05,SSE,159,5.0,6.0,79,0.00,,,0.00,Wunderground v.1.15,2013-09-05 01:30:00,
2013-09-04 21:35:00,83.7,76.5,30.04,SSW,198,5.0,6.0,79,0.00,,,0.00,Wunderground v.1.15,2013-09-05 01:35:00,
2013-09-04 21:45:00,83.7,76.9,30.05,SSW,196,7.0,9.0,80,0.00,,,0.00,Wunderground v.1.15,2013-09-05 01:45:00,
2013-09-04 21:50:00,83.8,77.3,30.05,South,189,7.0,7.0,81,0.00,,,0.00,Wunderground v.1.15,2013-09-05 01:50:00,
2013-09-04 22:00:00,83.8,78.1,30.06,SSW,209,7.0,7.0,83,0.00,,,0.00,Wunderground v.1.15,2013-09-05 02:00:00,
2013-09-04 22:10:00,83.7,78.0,30.06,SSW,193,8.0,8.0,83,0.00,,,0.00,Wunderground v.1.15,2013-09-05 02:10:00,
2013-09-04 22:20:00,83.6,77.9,30.06,SSW,192,8.0,11.0,83,0.00,,,0.00,Wunderground v.1.15,2013-09-05 02:20:00,
2013-09-04 22:25:00,83.4,77.7,30.07,South,187,8.0,11.0,83,0.00,,,0.00,Wunderground v.1.15,2013-09-05 02:25:00,
2013-09-04 22:35:00,83.3,77.6,30.07,SSW,198,6.0,8.0,83,0.00,,,0.00,Wunderground v.1.15,2013-09-05 02:35:00,
2013-09-04 22:45:00,83.2,77.1,30.06,SSW,196,6.0,7.0,82,0.00,,,0.00,Wunderground v.1.15,2013-09-05 02:45:00,
2013-09-04 22:50:00,83.2,77.1,30.06,SSW,202,6.0,6.0,82,0.00,,,0.00,Wunderground v.1.15,2013-09-05 02:50:00,
2013-09-04 22:55:00,83.2,76.8,30.06,SSW,200,7.0,7.0,81,0.00,,,0.00,Wunderground v.1.15,2013-09-05 02:55:00,
2013-09-04 23:05:00,83.4,77.0,30.06,South,186,8.0,8.0,81,0.00,,,0.00,Wunderground v.1.15,2013-09-05 03:05:00,
2013-09-04 23:10:00,83.3,76.9,30.06,SSW,192,7.0,7.0,81,0.00,,,0.00,Wunderground v.1.15,2013-09-05 03:10:00,
2013-09-04 23:20:00,83.3,77.2,30.06,SSW,208,7.0,7.0,82,0.00,,,0.00,Wunderground v.1.15,2013-09-05 03:20:00,
2013-09-04 23:25:00,83.2,77.1,30.05,SSW,197,6.0,8.0,82,0.00,,,0.00,Wunderground v.1.15,2013-09-05 03:25:00,
2013-09-04 23:35:00,83.1,77.4,30.06,SSW,205,6.0,6.0,83,0.00,,,0.00,Wunderground v.1.15,2013-09-05 03:35:00,
2013-09-04 23:40:00,83.1,77.4,30.06,SSW,205,5.0,5.0,83,0.00,,,0.00,Wunderground v.1.15,2013-09-05 03:40:00,
2013-09-04 23:50:00,82.9,76.8,30.06,SSW,196,3.0,3.0,82,0.00,,,0.00,Wunderground v.1.15,2013-09-05 03:50:00,
2013-09-04 23:55:00,82.9,76.8,30.06,SSW,198,2.0,3.0,82,0.00,,,0.00,Wunderground v.1.15,2013-09-05 03:55:00,